Time;durP1;ratioP1;P1;durP2;ratioP2;P2;SDS_P1;SDS_P2;PMS_P1;PMS_P2;Temp;Humidity;BMP_temperature;BMP_pressure;BME280_temperature;BME280_humidity;BME280_pressure;Samples;Min_cycle;Max_cycle;Signal;HPM_P1;HPM_P2
2021/08/12 00:00:38;;;;;;;10.20;9.20;;;18.10;99.90;;;;;;4977789;28;20932;-45
2021/08/12 00:03:04;;;;;;;9.83;8.40;;;18.00;99.90;;;;;;4978065;28;20459;-42
2021/08/12 00:05:31;;;;;;;13.23;8.77;;;18.10;99.90;;;;;;4977628;28;20482;-44
2021/08/12 00:07:58;;;;;;;8.83;8.03;;;18.00;99.90;;;;;;4978003;28;20525;-42
2021/08/12 00:10:25;;;;;;;15.70;8.80;;;18.00;99.90;;;;;;4977524;28;20505;-48
2021/08/12 00:12:53;;;;;;;11.30;9.00;;;18.00;99.90;;;;;;4977862;28;20838;-42
2021/08/12 00:15:19;;;;;;;11.23;9.60;;;17.90;99.90;;;;;;4977744;28;20509;-47
2021/08/12 00:17:46;;;;;;;9.30;8.23;;;17.90;99.90;;;;;;4977716;28;20942;-45
2021/08/12 00:20:13;;;;;;;11.47;9.20;;;17.90;99.90;;;;;;4977493;28;20892;-44
2021/08/12 00:22:40;;;;;;;10.10;9.00;;;17.80;99.90;;;;;;4977410;28;20924;-43
2021/08/12 00:25:08;;;;;;;12.60;9.63;;;17.80;99.90;;;;;;4977753;28;20573;-44
2021/08/12 00:27:35;;;;;;;8.40;7.60;;;17.70;99.90;;;;;;4977352;28;20474;-44
2021/08/12 00:30:03;;;;;;;10.07;8.13;;;17.70;99.90;;;;;;4977597;28;20461;-44
2021/08/12 00:32:30;;;;;;;10.97;8.70;;;17.70;99.90;;;;;;4977737;28;20451;-43
2021/08/12 00:34:57;;;;;;;10.33;9.20;;;17.70;99.90;;;;;;4977254;28;20472;-44
2021/08/12 00:37:23;;;;;;;8.57;7.77;;;17.70;99.90;;;;;;4977237;28;20816;-45
2021/08/12 00:39:50;;;;;;;10.43;9.40;;;17.70;99.90;;;;;;4977151;28;20455;-44
2021/08/12 00:42:16;;;;;;;10.20;9.10;;;17.70;99.90;;;;;;4977334;28;20462;-45
2021/08/12 00:44:43;;;;;;;9.70;8.70;;;17.70;99.90;;;;;;4977295;28;20447;-44
2021/08/12 00:47:11;;;;;;;10.40;8.77;;;17.70;99.90;;;;;;4977201;28;20455;-44
2021/08/12 00:49:39;;;;;;;14.80;8.77;;;17.60;99.90;;;;;;4977199;28;20470;-45
2021/08/12 00:52:06;;;;;;;10.00;7.60;;;17.60;99.90;;;;;;4977144;28;20843;-44
2021/08/12 00:54:35;;;;;;;9.97;7.47;;;17.60;99.90;;;;;;4976657;28;20454;-48
2021/08/12 00:57:02;;;;;;;10.63;8.47;;;17.60;99.90;;;;;;4977271;28;20558;-43
2021/08/12 00:59:34;;;;;;;10.20;8.83;;;17.50;99.90;;;;;;4976987;28;20539;-45
2021/08/12 01:02:02;;;;;;;9.87;8.90;;;17.50;99.90;;;;;;4977213;28;20784;-45
2021/08/12 01:04:30;;;;;;;11.00;9.30;;;17.50;99.90;;;;;;4976843;28;20451;-43
2021/08/12 01:07:02;;;;;;;10.97;9.40;;;17.50;99.90;;;;;;4976967;28;20463;-47
2021/08/12 01:09:34;;;;;;;12.10;9.57;;;17.40;99.90;;;;;;4977386;28;20428;-45
2021/08/12 01:12:07;;;;;;;14.90;9.50;;;17.50;99.90;;;;;;4978665;28;20900;-46
2021/08/12 01:14:39;;;;;;;9.60;8.60;;;17.40;99.90;;;;;;4976789;28;21002;-48
2021/08/12 01:17:10;;;;;;;10.40;8.93;;;17.40;99.90;;;;;;4977923;28;20450;-46
2021/08/12 01:20:02;;;;;;;11.93;9.03;;;17.40;99.90;;;;;;4978719;28;20525;-44
2021/08/12 01:22:30;;;;;;;12.67;10.70;;;17.40;99.90;;;;;;4977500;28;20977;-45
2021/08/12 01:25:00;;;;;;;9.63;8.63;;;17.40;99.90;;;;;;4978327;28;20446;-42
2021/08/12 01:27:32;;;;;;;9.97;8.50;;;17.40;99.90;;;;;;4978200;28;20462;-43
2021/08/12 01:30:03;;;;;;;12.87;9.60;;;17.40;99.90;;;;;;4978175;28;20505;-45
2021/08/12 01:32:40;;;;;;;10.73;8.90;;;17.40;99.90;;;;;;4978384;28;20451;-42
2021/08/12 01:35:10;;;;;;;11.13;10.03;;;17.30;99.90;;;;;;4978729;28;20819;-41
2021/08/12 01:37:41;;;;;;;10.60;9.20;;;17.30;99.90;;;;;;4978267;28;20513;-47
2021/08/12 01:40:11;;;;;;;12.57;9.60;;;17.30;99.90;;;;;;4978672;28;20506;-45
2021/08/12 01:42:39;;;;;;;10.23;9.00;;;17.20;99.90;;;;;;4978048;28;20455;-43
2021/08/12 01:45:07;;;;;;;10.83;8.67;;;17.20;99.90;;;;;;4978323;28;20490;-46
2021/08/12 01:47:35;;;;;;;11.63;9.40;;;17.20;99.90;;;;;;4978304;28;20443;-42
2021/08/12 01:50:04;;;;;;;10.43;9.37;;;17.10;99.90;;;;;;4977542;28;20447;-45
2021/08/12 01:52:34;;;;;;;9.73;8.17;;;17.10;99.90;;;;;;4977607;28;20447;-43
2021/08/12 01:55:02;;;;;;;12.60;9.00;;;17.10;99.90;;;;;;4977545;28;20458;-43
2021/08/12 01:57:29;;;;;;;10.67;9.60;;;17.10;99.90;;;;;;4978175;28;20454;-40
2021/08/12 01:59:56;;;;;;;10.33;9.07;;;17.00;99.90;;;;;;4977619;28;20483;-44
2021/08/12 02:02:24;;;;;;;12.13;10.60;;;17.00;99.90;;;;;;4977516;28;21106;-43
2021/08/12 02:04:53;;;;;;;11.60;10.27;;;17.00;99.90;;;;;;4977774;28;20517;-46
2021/08/12 02:07:19;;;;;;;12.33;10.07;;;17.00;99.90;;;;;;4976819;28;20451;-47
2021/08/12 02:09:47;;;;;;;10.63;8.93;;;17.00;99.90;;;;;;4978225;28;20852;-46
2021/08/12 02:12:14;;;;;;;13.20;9.53;;;17.00;99.90;;;;;;4977930;28;20487;-45
2021/08/12 02:14:41;;;;;;;9.80;8.63;;;17.00;99.90;;;;;;4977316;28;20795;-47
2021/08/12 02:17:07;;;;;;;10.20;9.17;;;17.00;99.90;;;;;;4978332;28;20447;-46
2021/08/12 02:19:35;;;;;;;11.00;9.83;;;17.00;99.90;;;;;;4977250;28;20864;-44
2021/08/12 02:22:05;;;;;;;11.40;9.40;;;17.00;99.90;;;;;;4977912;28;20447;-47
2021/08/12 02:24:38;;;;;;;11.63;9.37;;;16.90;99.90;;;;;;4977703;28;20473;-42
2021/08/12 02:27:12;;;;;;;11.30;9.40;;;16.90;99.90;;;;;;4977735;28;20517;-42
2021/08/12 02:29:40;;;;;;;10.40;9.30;;;16.90;99.90;;;;;;4977734;28;20439;-41
2021/08/12 02:32:10;;;;;;;11.50;8.80;;;16.80;99.90;;;;;;4977249;28;20451;-46
2021/08/12 02:34:38;;;;;;;11.13;8.60;;;16.80;99.90;;;;;;4976935;28;20513;-45
2021/08/12 02:37:08;;;;;;;10.40;9.50;;;16.80;99.90;;;;;;4977827;28;20844;-44
2021/08/12 02:39:36;;;;;;;10.00;9.03;;;16.70;99.90;;;;;;4977214;28;20522;-47
2021/08/12 02:42:04;;;;;;;11.90;9.10;;;16.70;99.90;;;;;;4977652;28;20478;-47
2021/08/12 02:44:34;;;;;;;12.03;10.80;;;16.70;99.90;;;;;;4977155;28;20474;-43
2021/08/12 02:47:03;;;;;;;10.60;9.17;;;16.70;99.90;;;;;;4977845;28;20466;-43
2021/08/12 02:49:32;;;;;;;10.30;8.73;;;16.70;99.90;;;;;;4977416;28;20540;-44
2021/08/12 02:52:01;;;;;;;10.77;9.27;;;16.70;99.90;;;;;;4977793;28;20867;-43
2021/08/12 02:54:28;;;;;;;10.67;9.60;;;16.70;99.90;;;;;;4977919;28;20447;-49
2021/08/12 02:56:56;;;;;;;9.60;8.63;;;16.60;99.90;;;;;;4977571;28;20451;-47
2021/08/12 02:59:23;;;;;;;10.43;9.33;;;16.60;99.90;;;;;;4977501;28;20475;-48
2021/08/12 03:01:53;;;;;;;9.97;8.97;;;16.60;99.90;;;;;;4976945;28;20513;-43
2021/08/12 03:04:21;;;;;;;10.33;9.20;;;16.60;99.90;;;;;;4977653;28;20454;-44
2021/08/12 03:06:49;;;;;;;10.97;9.20;;;16.60;99.90;;;;;;4977740;28;20451;-50
2021/08/12 03:09:16;;;;;;;10.90;9.80;;;16.60;99.90;;;;;;4977508;28;20836;-51
2021/08/12 03:11:44;;;;;;;10.63;9.20;;;16.60;99.90;;;;;;4977421;28;20542;-47
2021/08/12 03:14:12;;;;;;;10.50;9.43;;;16.60;99.90;;;;;;4977522;28;20458;-44
2021/08/12 03:16:39;;;;;;;11.87;10.60;;;16.50;99.90;;;;;;4977121;28;20458;-44
2021/08/12 03:19:07;;;;;;;11.70;10.50;;;16.60;99.90;;;;;;4979758;28;21038;-44
2021/08/12 03:21:34;;;;;;;11.10;10.00;;;16.50;99.90;;;;;;4981113;28;20490;-44
2021/08/12 03:24:04;;;;;;;14.60;10.77;;;16.50;99.90;;;;;;4980667;28;20454;-42
2021/08/12 03:26:31;;;;;;;11.10;9.90;;;16.50;99.90;;;;;;4980955;28;20473;-45
2021/08/12 03:28:58;;;;;;;10.77;8.30;;;16.50;99.90;;;;;;4980884;28;20443;-45
2021/08/12 03:31:24;;;;;;;12.73;9.97;;;16.50;99.90;;;;;;4980681;28;20508;-42
2021/08/12 03:33:51;;;;;;;9.67;8.67;;;16.50;99.90;;;;;;4980581;28;20451;-42
2021/08/12 03:36:19;;;;;;;10.93;9.93;;;16.60;99.90;;;;;;4980429;28;20467;-47
2021/08/12 03:38:46;;;;;;;9.97;8.97;;;16.60;99.90;;;;;;4980443;28;20859;-49
2021/08/12 03:41:12;;;;;;;11.43;9.40;;;16.60;99.90;;;;;;4980381;28;20474;-42
2021/08/12 03:43:39;;;;;;;10.50;8.97;;;16.60;99.90;;;;;;4980622;28;20522;-43
2021/08/12 03:46:06;;;;;;;10.77;9.50;;;16.60;99.90;;;;;;4980355;28;20470;-42
2021/08/12 03:48:32;;;;;;;15.40;10.70;;;16.60;99.90;;;;;;4980702;28;20443;-47
2021/08/12 03:50:59;;;;;;;10.87;9.70;;;16.60;99.90;;;;;;4980246;28;20501;-44
2021/08/12 03:53:27;;;;;;;11.73;10.50;;;16.60;99.90;;;;;;4980443;28;20461;-46
2021/08/12 03:55:59;;;;;;;11.50;9.93;;;16.60;99.90;;;;;;4980130;28;20909;-45
2021/08/12 03:58:25;;;;;;;11.53;9.70;;;16.60;99.90;;;;;;4980531;28;20447;-43
2021/08/12 04:00:52;;;;;;;12.50;10.17;;;16.60;99.90;;;;;;4980517;28;20529;-41
2021/08/12 04:03:19;;;;;;;13.20;9.40;;;16.60;99.90;;;;;;4979819;28;20470;-45
2021/08/12 04:05:45;;;;;;;14.50;9.80;;;16.60;99.90;;;;;;4980116;28;20446;-42
2021/08/12 04:08:12;;;;;;;11.20;9.30;;;16.60;99.90;;;;;;4980024;28;20944;-44
2021/08/12 04:10:41;;;;;;;10.43;9.37;;;16.60;99.90;;;;;;4979993;28;20487;-44
2021/08/12 04:13:08;;;;;;;11.83;9.97;;;16.60;99.90;;;;;;4980500;28;20450;-48
2021/08/12 04:15:35;;;;;;;10.37;9.30;;;16.60;99.90;;;;;;4980047;28;20506;-47
2021/08/12 04:18:01;;;;;;;12.23;9.03;;;16.60;99.90;;;;;;4980503;28;20525;-42
2021/08/12 04:20:28;;;;;;;10.70;9.60;;;16.60;99.90;;;;;;4980260;28;20490;-44
2021/08/12 04:22:55;;;;;;;11.03;10.00;;;16.60;99.90;;;;;;4979869;28;20447;-45
2021/08/12 04:25:21;;;;;;;11.83;9.30;;;16.60;99.90;;;;;;4980053;28;20764;-45
2021/08/12 04:27:49;;;;;;;11.77;10.43;;;16.60;99.90;;;;;;4979757;28;20507;-41
2021/08/12 04:30:16;;;;;;;10.30;9.30;;;16.60;99.90;;;;;;4979294;28;20443;-47
2021/08/12 04:32:43;;;;;;;17.00;11.53;;;16.60;99.90;;;;;;4980261;28;20900;-42
2021/08/12 04:35:10;;;;;;;10.23;9.20;;;16.60;99.90;;;;;;4980148;28;20521;-47
2021/08/12 04:37:42;;;;;;;11.00;8.67;;;16.70;99.90;;;;;;4979778;28;20909;-46
2021/08/12 04:40:10;;;;;;;13.73;9.67;;;16.70;99.90;;;;;;4979886;28;20492;-43
2021/08/12 04:42:37;;;;;;;12.70;10.47;;;16.70;99.90;;;;;;4979547;28;20459;-41
2021/08/12 04:45:06;;;;;;;11.30;9.87;;;16.80;99.90;;;;;;4979496;28;20503;-51
2021/08/12 04:47:33;;;;;;;11.47;10.27;;;16.80;99.90;;;;;;4979229;28;20455;-47
2021/08/12 04:50:00;;;;;;;13.40;9.53;;;16.90;99.90;;;;;;4979497;28;20514;-42
2021/08/12 04:52:26;;;;;;;12.97;10.87;;;16.90;99.90;;;;;;4979247;28;20458;-48
2021/08/12 04:54:54;;;;;;;14.00;11.47;;;16.90;99.90;;;;;;4978973;28;20835;-45
2021/08/12 04:57:20;;;;;;;10.80;9.67;;;16.90;99.90;;;;;;4962029;28;20491;-44
2021/08/12 04:59:47;;;;;;;11.90;9.67;;;16.90;99.90;;;;;;4978678;28;20479;-47
2021/08/12 05:02:15;;;;;;;10.80;9.70;;;17.00;99.90;;;;;;4982895;28;20478;-45
2021/08/12 05:04:42;;;;;;;13.40;10.40;;;17.00;99.90;;;;;;4978581;28;20451;-47
2021/08/12 05:07:08;;;;;;;13.27;10.43;;;17.00;99.90;;;;;;4978301;28;20828;-46
2021/08/12 05:09:35;;;;;;;11.00;9.93;;;17.00;99.90;;;;;;4976673;28;20487;-41
2021/08/12 05:12:02;;;;;;;12.27;10.00;;;17.10;99.90;;;;;;4978885;28;20856;-44
2021/08/12 05:14:29;;;;;;;11.40;9.70;;;17.10;99.90;;;;;;4981032;28;20463;-43
2021/08/12 05:16:56;;;;;;;13.30;10.33;;;17.10;99.90;;;;;;4980912;28;20513;-41
2021/08/12 05:19:24;;;;;;;11.90;10.70;;;17.20;99.90;;;;;;4980256;28;20483;-44
2021/08/12 05:21:52;;;;;;;11.70;9.73;;;17.20;99.90;;;;;;4980896;28;20517;-49
2021/08/12 05:24:19;;;;;;;12.60;10.50;;;17.30;99.90;;;;;;4980102;28;20462;-45
2021/08/12 05:26:46;;;;;;;12.20;10.97;;;17.40;99.90;;;;;;4980075;28;20439;-42
2021/08/12 05:29:12;;;;;;;10.53;9.43;;;17.50;99.90;;;;;;4981219;28;20447;-45
2021/08/12 05:31:39;;;;;;;12.03;10.03;;;17.60;99.90;;;;;;4981904;28;20451;-49
2021/08/12 05:34:06;;;;;;;11.20;10.20;;;17.60;99.90;;;;;;4981910;28;20848;-50
2021/08/12 05:36:34;;;;;;;10.87;9.40;;;17.70;99.90;;;;;;4975328;28;20518;-50
2021/08/12 05:39:01;;;;;;;9.90;8.80;;;17.80;99.90;;;;;;4978563;28;20778;-46
2021/08/12 05:41:28;;;;;;;11.10;9.67;;;17.90;99.90;;;;;;4978495;28;20529;-49
2021/08/12 05:43:54;;;;;;;11.40;10.30;;;17.90;99.90;;;;;;4959873;28;20443;-52
2021/08/12 05:46:21;;;;;;;10.77;9.70;;;18.00;99.90;;;;;;4965617;28;20529;-46
2021/08/12 05:48:48;;;;;;;12.77;11.33;;;18.10;99.90;;;;;;4968416;28;20451;-45
2021/08/12 05:51:14;;;;;;;11.43;10.03;;;18.10;99.90;;;;;;4958818;29;20448;-46
2021/08/12 05:53:42;;;;;;;10.93;9.70;;;18.20;99.90;;;;;;4959644;28;20456;-45
2021/08/12 05:56:09;;;;;;;12.03;10.50;;;18.20;99.90;;;;;;4977824;28;20929;-46
2021/08/12 05:58:38;;;;;;;11.90;10.40;;;18.30;99.90;;;;;;4977859;28;20498;-47
2021/08/12 06:01:07;;;;;;;12.60;9.57;;;18.40;99.90;;;;;;4965685;28;20558;-47
2021/08/12 06:03:33;;;;;;;11.40;8.93;;;18.50;99.90;;;;;;4973636;28;20485;-43
2021/08/12 06:06:00;;;;;;;10.33;9.33;;;18.60;99.90;;;;;;4962088;28;20447;-43
2021/08/12 06:08:27;;;;;;;10.67;8.90;;;18.70;99.90;;;;;;4978785;28;20451;-45
2021/08/12 06:10:55;;;;;;;10.10;9.10;;;18.80;99.90;;;;;;4972898;28;20479;-48
2021/08/12 06:13:21;;;;;;;12.17;9.33;;;18.80;99.90;;;;;;4973286;28;20534;-46
2021/08/12 06:15:48;;;;;;;11.43;8.97;;;19.00;99.90;;;;;;4964883;28;20447;-48
2021/08/12 06:18:15;;;;;;;11.63;9.93;;;19.10;99.90;;;;;;4976966;28;20461;-47
2021/08/12 06:20:44;;;;;;;14.37;9.40;;;19.10;99.90;;;;;;4976499;28;20483;-49
2021/08/12 06:23:11;;;;;;;9.93;8.93;;;19.10;99.90;;;;;;4974858;28;20457;-45
2021/08/12 06:25:40;;;;;;;12.73;8.83;;;19.20;99.90;;;;;;4957521;29;20464;-45
2021/08/12 06:28:09;;;;;;;9.10;7.30;;;19.30;99.90;;;;;;4956085;29;20523;-50
2021/08/12 06:30:36;;;;;;;13.50;7.07;;;19.40;99.90;;;;;;4957001;29;20448;-50
2021/08/12 06:33:04;;;;;;;10.53;7.70;;;19.50;99.90;;;;;;4956998;29;20526;-50
2021/08/12 06:35:34;;;;;;;7.87;5.70;;;19.60;99.90;;;;;;4957774;29;20530;-44
2021/08/12 06:38:04;;;;;;;7.23;6.53;;;19.70;99.90;;;;;;4967490;28;20459;-48
2021/08/12 06:40:32;;;;;;;6.83;6.10;;;19.80;99.90;;;;;;4959051;29;20482;-45
2021/08/12 06:42:59;;;;;;;7.73;6.23;;;20.00;99.90;;;;;;4958815;29;20769;-52
2021/08/12 06:45:27;;;;;;;10.20;6.23;;;20.00;99.90;;;;;;4957659;29;20909;-43
2021/08/12 06:47:54;;;;;;;5.20;4.60;;;20.10;99.90;;;;;;4960574;28;20455;-41
2021/08/12 06:50:22;;;;;;;6.67;5.60;;;20.20;99.90;;;;;;4979637;28;20451;-47
2021/08/12 06:52:49;;;;;;;9.47;6.40;;;20.30;99.90;;;;;;4981294;28;20451;-47
2021/08/12 06:55:16;;;;;;;9.43;6.10;;;20.40;99.90;;;;;;4981583;28;20832;-44
2021/08/12 06:57:43;;;;;;;8.03;5.67;;;20.40;99.90;;;;;;4975811;28;20474;-43
2021/08/12 07:00:11;;;;;;;7.83;6.80;;;20.50;99.90;;;;;;4974900;28;20479;-43
2021/08/12 07:02:39;;;;;;;7.83;6.93;;;20.60;99.90;;;;;;4960503;29;20451;-47
2021/08/12 07:05:07;;;;;;;10.27;8.40;;;20.80;99.90;;;;;;4973029;28;20446;-41
2021/08/12 07:07:34;;;;;;;10.63;8.07;;;20.80;99.90;;;;;;4966625;28;20477;-44
2021/08/12 07:10:00;;;;;;;15.57;8.50;;;20.90;99.90;;;;;;4974894;28;20462;-45
2021/08/12 07:12:27;;;;;;;12.30;8.37;;;21.00;99.90;;;;;;4971778;28;20436;-45
2021/08/12 07:14:53;;;;;;;15.30;9.20;;;21.10;99.90;;;;;;4971473;28;20507;-42
2021/08/12 07:17:20;;;;;;;9.93;7.53;;;21.20;99.90;;;;;;4979774;28;20459;-45
2021/08/12 07:19:48;;;;;;;9.40;6.83;;;21.30;99.90;;;;;;4979561;28;20486;-43
2021/08/12 07:22:15;;;;;;;7.60;6.70;;;21.40;99.90;;;;;;4972079;28;20507;-45
2021/08/12 07:24:42;;;;;;;8.60;6.77;;;21.50;99.90;;;;;;4959074;29;20458;-45
2021/08/12 07:27:08;;;;;;;8.23;6.00;;;21.60;99.90;;;;;;4971842;28;20443;-47
2021/08/12 07:29:35;;;;;;;8.63;6.20;;;21.60;99.90;;;;;;4963128;28;20813;-43
2021/08/12 07:32:03;;;;;;;8.10;6.50;;;21.70;99.90;;;;;;4974798;28;20514;-43
2021/08/12 07:34:29;;;;;;;6.23;5.63;;;21.70;99.90;;;;;;4967652;28;20455;-41
2021/08/12 07:36:58;;;;;;;7.37;6.57;;;21.80;99.90;;;;;;4978980;28;20454;-45
2021/08/12 07:39:24;;;;;;;6.43;5.73;;;21.90;99.90;;;;;;4963537;28;20452;-43
2021/08/12 07:41:51;;;;;;;6.70;6.03;;;22.10;99.90;;;;;;4976050;28;20796;-43
2021/08/12 07:44:18;;;;;;;10.80;5.93;;;22.10;99.90;;;;;;4959728;29;20451;-47
2021/08/12 07:46:44;;;;;;;7.50;5.60;;;22.20;99.90;;;;;;4958960;29;20530;-43
2021/08/12 07:49:11;;;;;;;7.10;5.40;;;22.40;99.90;;;;;;4971694;28;20466;-47
2021/08/12 07:51:38;;;;;;;6.10;5.10;;;22.60;99.90;;;;;;4960478;28;20511;-44
2021/08/12 07:54:06;;;;;;;5.93;4.50;;;22.90;99.90;;;;;;4958230;29;20481;-47
2021/08/12 07:56:32;;;;;;;5.20;4.70;;;23.90;99.90;;;;;;4958250;29;20936;-46
2021/08/12 07:58:59;;;;;;;13.83;6.73;;;25.50;99.90;;;;;;4970632;28;20820;-43
2021/08/12 08:01:26;;;;;;;6.77;4.30;;;27.60;99.90;;;;;;4977407;28;20486;-43
2021/08/12 08:03:53;;;;;;;5.50;5.00;;;29.50;93.90;;;;;;4974368;28;20502;-45
2021/08/12 08:06:19;;;;;;;5.40;4.57;;;31.30;85.30;;;;;;4964437;28;20818;-46
2021/08/12 08:08:46;;;;;;;5.27;4.77;;;33.20;70.70;;;;;;4967348;28;21023;-45
2021/08/12 08:11:17;;;;;;;5.17;4.77;;;34.30;60.60;;;;;;4971864;28;20471;-43
2021/08/12 08:13:43;;;;;;;10.73;5.90;;;35.20;57.00;;;;;;4962240;28;20901;-45
2021/08/12 08:16:10;;;;;;;6.20;4.47;;;36.00;54.20;;;;;;4972328;28;20909;-50
2021/08/12 08:18:37;;;;;;;8.20;4.07;;;36.50;51.30;;;;;;4958212;29;20455;-51
2021/08/12 08:21:03;;;;;;;6.30;4.43;;;36.70;48.40;;;;;;4970941;28;20478;-55
2021/08/12 08:23:30;;;;;;;5.30;4.50;;;36.60;47.70;;;;;;4961560;28;20455;-45
2021/08/12 08:25:57;;;;;;;4.50;4.10;;;36.30;47.60;;;;;;4974322;28;20456;-49
2021/08/12 08:28:25;;;;;;;4.10;3.60;;;36.10;47.70;;;;;;4957984;29;20468;-57
2021/08/12 08:30:51;;;;;;;4.87;4.47;;;36.40;46.70;;;;;;4957654;29;20852;-47
2021/08/12 08:33:18;;;;;;;5.30;4.63;;;36.50;45.90;;;;;;4972463;28;20782;-43
2021/08/12 08:35:45;;;;;;;4.33;4.03;;;36.80;46.20;;;;;;4975349;28;20455;-51
2021/08/12 08:38:11;;;;;;;4.80;4.17;;;37.30;44.50;;;;;;4959774;28;20963;-49
2021/08/12 08:40:38;;;;;;;3.57;3.27;;;37.70;44.40;;;;;;4977361;28;21012;-44
2021/08/12 08:43:07;;;;;;;4.80;3.97;;;38.00;42.60;;;;;;4977894;28;20447;-48
2021/08/12 08:45:38;;;;;;;4.80;3.87;;;38.30;42.80;;;;;;4976667;28;20847;-46
2021/08/12 08:48:10;;;;;;;5.73;4.50;;;38.20;42.80;;;;;;4962376;28;20787;-44
2021/08/12 08:50:38;;;;;;;4.37;3.97;;;38.10;41.80;;;;;;4967947;28;20424;-45
2021/08/12 08:53:05;;;;;;;9.23;4.00;;;38.10;41.70;;;;;;4970705;28;20786;-45
2021/08/12 08:55:31;;;;;;;9.83;4.30;;;37.80;40.60;;;;;;4961378;28;20655;-47
2021/08/12 08:57:59;;;;;;;5.80;4.00;;;37.80;41.00;;;;;;4972195;28;20447;-45
2021/08/12 09:00:27;;;;;;;4.50;4.00;;;37.60;41.80;;;;;;4964608;28;20486;-44
2021/08/12 09:02:55;;;;;;;8.60;4.57;;;37.70;41.80;;;;;;4965227;28;20458;-42
2021/08/12 09:05:22;;;;;;;5.60;4.40;;;37.60;42.00;;;;;;4958443;29;20451;-45
2021/08/12 09:07:50;;;;;;;4.17;3.77;;;37.60;42.10;;;;;;4977435;28;20447;-47
2021/08/12 09:10:18;;;;;;;7.10;4.57;;;37.60;40.70;;;;;;4976598;28;20815;-48
2021/08/12 09:12:45;;;;;;;9.27;3.77;;;37.70;41.20;;;;;;4976699;28;20450;-47
2021/08/12 09:15:18;;;;;;;4.13;3.67;;;38.00;39.90;;;;;;4976760;28;20461;-47
2021/08/12 09:17:45;;;;;;;4.20;3.07;;;38.10;40.00;;;;;;4960261;28;20467;-47
2021/08/12 09:20:15;;;;;;;4.70;4.00;;;37.90;39.60;;;;;;4971184;28;20574;-47
2021/08/12 09:22:52;;;;;;;3.57;3.27;;;37.90;40.10;;;;;;4967773;28;20846;-49
2021/08/12 09:25:35;;;;;;;6.27;5.17;;;37.40;41.70;;;;;;4963075;28;20515;-44
2021/08/12 09:28:13;;;;;;;4.20;3.80;;;37.30;40.40;;;;;;4962354;28;20443;-48
2021/08/12 09:30:40;;;;;;;4.23;3.60;;;37.10;40.90;;;;;;4967795;28;20439;-45
2021/08/12 09:33:07;;;;;;;4.13;3.63;;;36.90;40.30;;;;;;4957389;28;20447;-52
2021/08/12 09:35:35;;;;;;;4.80;3.80;;;36.50;41.10;;;;;;4973472;28;20463;-49
2021/08/12 09:38:09;;;;;;;7.57;4.13;;;36.10;41.10;;;;;;4956553;29;20455;-50
2021/08/12 09:40:36;;;;;;;4.00;3.30;;;35.70;42.90;;;;;;4965037;28;20478;-51
2021/08/12 09:43:05;;;;;;;4.40;4.00;;;35.70;41.70;;;;;;4975874;28;20462;-44
2021/08/12 09:45:34;;;;;;;4.00;3.40;;;35.80;42.60;;;;;;4975877;28;20455;-44
2021/08/12 09:48:12;;;;;;;8.27;3.17;;;35.80;41.70;;;;;;4975572;28;20469;-45
2021/08/12 09:50:41;;;;;;;3.67;3.30;;;35.80;41.60;;;;;;4966454;28;20893;-44
2021/08/12 09:53:08;;;;;;;4.43;4.03;;;35.60;42.40;;;;;;4956505;29;20514;-41
2021/08/12 09:55:39;;;;;;;4.23;3.27;;;35.90;41.30;;;;;;4973203;28;20443;-48
2021/08/12 09:58:10;;;;;;;3.20;2.90;;;36.00;40.60;;;;;;4975501;28;20458;-44
2021/08/12 10:00:41;;;;;;;3.30;3.00;;;35.50;41.80;;;;;;4966156;28;20606;-48
2021/08/12 10:03:25;;;;;;;3.67;3.27;;;35.60;40.80;;;;;;4969179;28;20467;-44
2021/08/12 10:05:55;;;;;;;3.20;2.90;;;35.90;41.30;;;;;;4972508;28;20459;-47
2021/08/12 10:08:31;;;;;;;3.70;3.20;;;35.90;41.70;;;;;;4962681;28;20463;-42
2021/08/12 10:11:15;;;;;;;4.80;3.80;;;35.90;43.10;;;;;;4963195;28;20968;-47
2021/08/12 10:13:42;;;;;;;4.27;3.33;;;36.40;41.60;;;;;;4973677;28;20533;-48
2021/08/12 10:16:09;;;;;;;4.90;3.83;;;36.90;40.90;;;;;;4970576;28;20515;-48
2021/08/12 10:18:38;;;;;;;5.80;3.63;;;36.90;40.80;;;;;;4965082;28;20769;-47
2021/08/12 10:21:09;;;;;;;3.63;3.33;;;36.80;41.20;;;;;;4962164;28;20541;-46
2021/08/12 10:23:37;;;;;;;4.90;3.57;;;36.80;41.60;;;;;;4956021;29;20448;-46
2021/08/12 10:26:04;;;;;;;5.87;3.60;;;36.70;40.80;;;;;;4960772;28;20514;-45
2021/08/12 10:28:34;;;;;;;3.57;3.23;;;36.80;40.00;;;;;;4974705;28;20504;-49
2021/08/12 10:31:03;;;;;;;3.13;2.90;;;36.70;39.20;;;;;;4962803;28;20906;-48
2021/08/12 10:33:30;;;;;;;4.70;3.30;;;36.60;40.20;;;;;;4972021;28;20447;-49
2021/08/12 10:35:58;;;;;;;3.40;2.97;;;36.40;41.20;;;;;;4975161;28;20467;-48
2021/08/12 10:38:26;;;;;;;7.87;3.50;;;35.00;40.90;;;;;;4968128;28;20455;-46
2021/08/12 10:40:54;;;;;;;3.40;3.10;;;33.80;42.10;;;;;;4966904;28;20486;-45
2021/08/12 10:43:23;;;;;;;5.10;3.40;;;32.70;43.40;;;;;;4960246;28;20538;-49
2021/08/12 10:45:57;;;;;;;3.93;3.53;;;32.20;46.50;;;;;;4971943;28;20448;-45
2021/08/12 10:48:26;;;;;;;3.33;2.80;;;32.30;45.20;;;;;;4955405;29;20916;-45
2021/08/12 10:51:10;;;;;;;3.70;3.40;;;32.40;46.80;;;;;;4966796;28;20455;-43
2021/08/12 10:53:39;;;;;;;5.47;3.77;;;32.40;47.20;;;;;;4958367;28;20435;-44
2021/08/12 10:56:14;;;;;;;3.47;3.17;;;32.40;46.20;;;;;;4960823;28;20454;-47
2021/08/12 10:58:46;;;;;;;3.13;2.80;;;32.40;45.90;;;;;;4975266;28;20770;-43
2021/08/12 11:01:14;;;;;;;4.20;3.73;;;32.30;48.70;;;;;;4962227;28;20503;-43
2021/08/12 11:03:47;;;;;;;5.20;4.03;;;32.30;46.60;;;;;;4973600;28;20443;-48
2021/08/12 11:06:16;;;;;;;9.20;3.20;;;32.40;46.50;;;;;;4969196;28;20460;-51
2021/08/12 11:09:05;;;;;;;3.90;3.50;;;32.10;46.70;;;;;;4962234;28;20506;-51
2021/08/12 11:11:51;;;;;;;5.53;3.17;;;31.90;48.10;;;;;;4972114;28;20485;-47
2021/08/12 11:14:50;;;;;;;3.10;2.67;;;31.70;48.30;;;;;;4975832;28;20556;-44
2021/08/12 11:17:17;;;;;;;4.00;3.30;;;31.50;46.90;;;;;;4975690;28;20473;-48
2021/08/12 11:19:45;;;;;;;5.00;3.40;;;31.40;47.30;;;;;;4975725;28;20923;-47
2021/08/12 11:22:33;;;;;;;3.87;3.50;;;31.40;48.00;;;;;;4975668;28;20478;-49
2021/08/12 11:25:03;;;;;;;4.07;3.67;;;31.40;47.10;;;;;;4974719;28;20489;-46
2021/08/12 11:27:35;;;;;;;6.10;4.80;;;31.50;48.30;;;;;;4974683;28;20450;-50
2021/08/12 11:30:49;;;;;;;5.50;4.90;;;31.40;48.10;;;;;;4974527;28;20935;-48
2021/08/12 11:33:30;;;;;;;4.57;4.07;;;31.30;47.30;;;;;;4974064;28;20521;-48
2021/08/12 11:36:15;;;;;;;3.80;3.50;;;31.10;47.90;;;;;;4973809;28;20443;-51
2021/08/12 11:38:44;;;;;;;4.70;4.27;;;31.10;47.30;;;;;;4966881;28;20896;-52
2021/08/12 11:41:12;;;;;;;6.73;3.43;;;30.70;47.70;;;;;;4977806;28;20486;-52
2021/08/12 11:43:41;;;;;;;4.37;3.67;;;30.40;50.10;;;;;;4978141;28;20450;-49
2021/08/12 11:46:10;;;;;;;4.33;3.93;;;30.20;50.00;;;;;;4977365;28;20447;-48
2021/08/12 11:48:37;;;;;;;3.77;3.23;;;30.20;50.10;;;;;;4977575;28;20482;-43
2021/08/12 11:51:06;;;;;;;4.37;3.80;;;30.20;50.00;;;;;;4977701;28;20447;-51
2021/08/12 11:53:44;;;;;;;4.10;3.70;;;30.00;49.20;;;;;;4977717;28;20459;-48
2021/08/12 11:56:22;;;;;;;7.20;4.40;;;29.90;49.10;;;;;;4977283;28;20861;-48
2021/08/12 11:58:50;;;;;;;3.13;2.87;;;29.80;49.30;;;;;;4977569;28;20958;-45
2021/08/12 12:01:18;;;;;;;3.77;3.47;;;29.70;49.00;;;;;;4977043;28;20871;-43
2021/08/12 12:03:49;;;;;;;4.07;3.10;;;29.70;49.50;;;;;;4977494;28;21005;-49
2021/08/12 12:06:35;;;;;;;4.17;3.30;;;29.70;49.40;;;;;;4977496;28;20462;-46
2021/08/12 12:09:26;;;;;;;4.30;3.40;;;29.60;49.30;;;;;;4977961;28;20517;-47
2021/08/12 12:12:00;;;;;;;3.60;3.30;;;29.30;49.40;;;;;;4978049;28;20435;-46
2021/08/12 12:14:28;;;;;;;4.40;3.57;;;29.10;49.60;;;;;;4977529;28;20443;-44
2021/08/12 12:17:13;;;;;;;3.17;2.87;;;29.00;50.70;;;;;;4977448;28;20590;-44
2021/08/12 12:20:01;;;;;;;4.83;2.80;;;28.70;51.20;;;;;;4976864;28;20442;-45
2021/08/12 12:22:30;;;;;;;4.10;3.70;;;28.60;51.20;;;;;;4977484;28;20505;-47
2021/08/12 12:24:57;;;;;;;3.20;2.90;;;28.50;52.50;;;;;;4977317;28;20466;-45
2021/08/12 12:27:27;;;;;;;4.23;3.60;;;28.50;51.60;;;;;;4976572;28;20455;-49
2021/08/12 12:29:54;;;;;;;5.60;3.00;;;28.60;50.80;;;;;;4974927;28;20492;-44
2021/08/12 12:32:21;;;;;;;4.23;3.83;;;28.70;51.00;;;;;;4976920;28;20458;-42
2021/08/12 12:34:52;;;;;;;3.80;3.40;;;28.80;50.90;;;;;;4976805;28;20471;-52
2021/08/12 12:37:20;;;;;;;4.43;3.43;;;28.90;52.60;;;;;;4976989;28;20455;-51
2021/08/12 12:39:47;;;;;;;3.83;3.50;;;29.10;50.90;;;;;;4976823;28;20443;-48
2021/08/12 12:42:14;;;;;;;5.70;3.20;;;29.20;49.90;;;;;;4976800;28;20497;-49
2021/08/12 12:47:47;;;;;;;4.57;3.43;;;29.30;49.80;;;;;;5173495;27;20550;-44
2021/08/12 12:50:16;;;;;;;3.27;2.97;;;29.30;49.10;;;;;;5173426;27;20450;-44
2021/08/12 12:52:58;;;;;;;4.23;3.53;;;29.20;50.80;;;;;;5173584;27;20441;-47